sensor_id;sensor_type;location;lat;lon;timestamp;P1;durP1;ratioP1;P2;durP2;ratioP2
7899;SDS011;3995;50.856;4.404;2022-12-18T00:02:22;24.13;;;18.77;;
7899;SDS011;3995;50.856;4.404;2022-12-18T00:04:50;22.50;;;17.58;;
7899;SDS011;3995;50.856;4.404;2022-12-18T00:07:17;19.15;;;16.33;;
7899;SDS011;3995;50.856;4.404;2022-12-18T00:09:45;22.90;;;17.08;;
7899;SDS011;3995;50.856;4.404;2022-12-18T00:12:12;18.13;;;16.15;;
7899;SDS011;3995;50.856;4.404;2022-12-18T00:14:43;17.58;;;15.50;;
7899;SDS011;3995;50.856;4.404;2022-12-18T00:17:10;19.52;;;17.42;;
7899;SDS011;3995;50.856;4.404;2022-12-18T00:19:38;20.42;;;16.70;;
7899;SDS011;3995;50.856;4.404;2022-12-18T00:22:05;16.90;;;14.88;;
7899;SDS011;3995;50.856;4.404;2022-12-18T00:24:32;18.10;;;15.70;;
7899;SDS011;3995;50.856;4.404;2022-12-18T00:26:59;17.27;;;14.60;;
7899;SDS011;3995;50.856;4.404;2022-12-18T00:29:27;18.65;;;15.75;;
7899;SDS011;3995;50.856;4.404;2022-12-18T00:31:56;17.80;;;15.43;;
7899;SDS011;3995;50.856;4.404;2022-12-18T00:34:23;17.45;;;15.15;;
7899;SDS011;3995;50.856;4.404;2022-12-18T00:36:50;16.33;;;14.32;;
7899;SDS011;3995;50.856;4.404;2022-12-18T00:39:17;19.00;;;14.02;;
7899;SDS011;3995;50.856;4.404;2022-12-18T00:41:44;14.27;;;12.77;;
7899;SDS011;3995;50.856;4.404;2022-12-18T00:44:29;16.63;;;14.15;;
7899;SDS011;3995;50.856;4.404;2022-12-18T00:46:58;17.48;;;14.70;;
7899;SDS011;3995;50.856;4.404;2022-12-18T00:49:25;18.83;;;14.80;;
7899;SDS011;3995;50.856;4.404;2022-12-18T00:51:55;16.50;;;13.73;;
7899;SDS011;3995;50.856;4.404;2022-12-18T00:54:23;14.40;;;12.90;;
7899;SDS011;3995;50.856;4.404;2022-12-18T00:56:50;15.88;;;12.20;;
7899;SDS011;3995;50.856;4.404;2022-12-18T00:59:18;12.98;;;11.55;;
7899;SDS011;3995;50.856;4.404;2022-12-18T01:01:45;12.52;;;11.30;;
7899;SDS011;3995;50.856;4.404;2022-12-18T01:04:14;13.43;;;11.40;;
7899;SDS011;3995;50.856;4.404;2022-12-18T01:06:41;15.15;;;11.80;;
7899;SDS011;3995;50.856;4.404;2022-12-18T01:09:09;12.35;;;11.05;;
7899;SDS011;3995;50.856;4.404;2022-12-18T01:11:36;13.63;;;12.07;;
7899;SDS011;3995;50.856;4.404;2022-12-18T01:14:03;12.60;;;10.50;;
7899;SDS011;3995;50.856;4.404;2022-12-18T01:16:31;12.05;;;10.57;;
7899;SDS011;3995;50.856;4.404;2022-12-18T01:18:58;12.27;;;10.98;;
7899;SDS011;3995;50.856;4.404;2022-12-18T01:21:27;12.43;;;11.10;;
7899;SDS011;3995;50.856;4.404;2022-12-18T01:23:54;13.95;;;11.70;;
7899;SDS011;3995;50.856;4.404;2022-12-18T01:26:23;11.75;;;10.55;;
7899;SDS011;3995;50.856;4.404;2022-12-18T01:28:53;11.45;;;10.15;;
7899;SDS011;3995;50.856;4.404;2022-12-18T01:31:22;10.95;;;9.63;;
7899;SDS011;3995;50.856;4.404;2022-12-18T01:33:51;14.50;;;10.70;;
7899;SDS011;3995;50.856;4.404;2022-12-18T01:36:19;12.10;;;10.85;;
7899;SDS011;3995;50.856;4.404;2022-12-18T01:38:50;11.32;;;10.10;;
7899;SDS011;3995;50.856;4.404;2022-12-18T01:41:20;12.60;;;11.30;;
7899;SDS011;3995;50.856;4.404;2022-12-18T01:43:50;13.10;;;10.60;;
7899;SDS011;3995;50.856;4.404;2022-12-18T01:46:20;10.60;;;9.50;;
7899;SDS011;3995;50.856;4.404;2022-12-18T01:48:49;11.35;;;10.18;;
7899;SDS011;3995;50.856;4.404;2022-12-18T01:51:19;14.10;;;11.38;;
7899;SDS011;3995;50.856;4.404;2022-12-18T01:53:46;11.40;;;10.20;;
7899;SDS011;3995;50.856;4.404;2022-12-18T01:56:17;12.63;;;10.95;;
7899;SDS011;3995;50.856;4.404;2022-12-18T01:58:48;11.30;;;10.18;;
7899;SDS011;3995;50.856;4.404;2022-12-18T02:01:21;11.88;;;10.00;;
7899;SDS011;3995;50.856;4.404;2022-12-18T02:03:49;12.55;;;10.60;;
7899;SDS011;3995;50.856;4.404;2022-12-18T02:06:18;12.65;;;10.68;;
7899;SDS011;3995;50.856;4.404;2022-12-18T02:08:57;11.55;;;9.35;;
7899;SDS011;3995;50.856;4.404;2022-12-18T02:11:33;12.30;;;10.70;;
7899;SDS011;3995;50.856;4.404;2022-12-18T02:14:10;11.30;;;10.20;;
7899;SDS011;3995;50.856;4.404;2022-12-18T02:16:44;13.57;;;11.55;;
7899;SDS011;3995;50.856;4.404;2022-12-18T02:19:20;12.30;;;10.52;;
7899;SDS011;3995;50.856;4.404;2022-12-18T02:22:12;10.82;;;9.80;;
7899;SDS011;3995;50.856;4.404;2022-12-18T02:24:51;11.77;;;10.50;;
7899;SDS011;3995;50.856;4.404;2022-12-18T02:27:27;10.40;;;9.30;;
7899;SDS011;3995;50.856;4.404;2022-12-18T02:29:59;11.32;;;10.13;;
7899;SDS011;3995;50.856;4.404;2022-12-18T02:32:29;11.38;;;9.02;;
7899;SDS011;3995;50.856;4.404;2022-12-18T02:34:58;11.15;;;9.25;;
7899;SDS011;3995;50.856;4.404;2022-12-18T02:37:27;9.52;;;8.48;;
7899;SDS011;3995;50.856;4.404;2022-12-18T02:39:57;9.82;;;8.85;;
7899;SDS011;3995;50.856;4.404;2022-12-18T02:42:27;8.82;;;7.93;;
7899;SDS011;3995;50.856;4.404;2022-12-18T02:44:55;10.30;;;8.55;;
7899;SDS011;3995;50.856;4.404;2022-12-18T02:47:24;9.50;;;8.50;;
7899;SDS011;3995;50.856;4.404;2022-12-18T02:49:59;9.32;;;8.43;;
7899;SDS011;3995;50.856;4.404;2022-12-18T02:52:35;9.18;;;8.23;;
7899;SDS011;3995;50.856;4.404;2022-12-18T02:55:14;9.35;;;8.35;;
7899;SDS011;3995;50.856;4.404;2022-12-18T02:57:49;10.27;;;9.15;;
7899;SDS011;3995;50.856;4.404;2022-12-18T03:00:20;10.40;;;9.35;;
7899;SDS011;3995;50.856;4.404;2022-12-18T03:02:51;9.68;;;8.20;;
7899;SDS011;3995;50.856;4.404;2022-12-18T03:05:24;9.75;;;8.75;;
7899;SDS011;3995;50.856;4.404;2022-12-18T03:07:57;11.60;;;8.32;;
7899;SDS011;3995;50.856;4.404;2022-12-18T03:10:29;10.55;;;9.45;;
7899;SDS011;3995;50.856;4.404;2022-12-18T03:13:02;9.95;;;8.95;;
7899;SDS011;3995;50.856;4.404;2022-12-18T03:15:33;11.00;;;9.25;;
7899;SDS011;3995;50.856;4.404;2022-12-18T03:18:04;9.90;;;8.90;;
7899;SDS011;3995;50.856;4.404;2022-12-18T03:20:37;10.10;;;8.80;;
7899;SDS011;3995;50.856;4.404;2022-12-18T03:23:09;9.65;;;8.35;;
7899;SDS011;3995;50.856;4.404;2022-12-18T03:25:40;9.10;;;8.27;;
7899;SDS011;3995;50.856;4.404;2022-12-18T03:28:12;9.90;;;8.88;;
7899;SDS011;3995;50.856;4.404;2022-12-18T03:30:43;9.73;;;8.82;;
7899;SDS011;3995;50.856;4.404;2022-12-18T03:33:14;11.65;;;9.35;;
7899;SDS011;3995;50.856;4.404;2022-12-18T03:35:45;9.30;;;8.40;;
7899;SDS011;3995;50.856;4.404;2022-12-18T03:38:13;9.95;;;8.93;;
7899;SDS011;3995;50.856;4.404;2022-12-18T03:40:49;9.60;;;8.70;;
7899;SDS011;3995;50.856;4.404;2022-12-18T03:43:28;9.38;;;8.40;;
7899;SDS011;3995;50.856;4.404;2022-12-18T03:46:04;10.25;;;9.15;;
7899;SDS011;3995;50.856;4.404;2022-12-18T03:48:36;9.23;;;8.32;;
7899;SDS011;3995;50.856;4.404;2022-12-18T03:51:10;8.95;;;8.02;;
7899;SDS011;3995;50.856;4.404;2022-12-18T03:53:43;8.48;;;7.65;;
7899;SDS011;3995;50.856;4.404;2022-12-18T03:56:18;8.95;;;7.72;;
7899;SDS011;3995;50.856;4.404;2022-12-18T03:58:50;9.32;;;8.30;;
7899;SDS011;3995;50.856;4.404;2022-12-18T04:01:20;8.93;;;8.05;;
7899;SDS011;3995;50.856;4.404;2022-12-18T04:03:52;10.63;;;8.05;;
7899;SDS011;3995;50.856;4.404;2022-12-18T04:06:20;9.02;;;8.13;;
7899;SDS011;3995;50.856;4.404;2022-12-18T04:08:48;7.55;;;6.85;;
7899;SDS011;3995;50.856;4.404;2022-12-18T04:11:15;8.20;;;7.43;;
7899;SDS011;3995;50.856;4.404;2022-12-18T04:13:43;7.90;;;6.82;;
7899;SDS011;3995;50.856;4.404;2022-12-18T04:16:12;8.18;;;7.38;;
7899;SDS011;3995;50.856;4.404;2022-12-18T04:18:39;7.50;;;6.75;;
7899;SDS011;3995;50.856;4.404;2022-12-18T04:21:06;8.68;;;7.78;;
7899;SDS011;3995;50.856;4.404;2022-12-18T04:23:34;8.50;;;7.45;;
7899;SDS011;3995;50.856;4.404;2022-12-18T04:26:01;8.93;;;8.07;;
7899;SDS011;3995;50.856;4.404;2022-12-18T04:28:28;10.48;;;8.30;;
7899;SDS011;3995;50.856;4.404;2022-12-18T04:30:56;8.18;;;6.95;;
7899;SDS011;3995;50.856;4.404;2022-12-18T04:33:24;8.07;;;7.38;;
7899;SDS011;3995;50.856;4.404;2022-12-18T04:35:51;8.30;;;7.45;;
7899;SDS011;3995;50.856;4.404;2022-12-18T04:38:18;8.80;;;6.95;;
7899;SDS011;3995;50.856;4.404;2022-12-18T04:40:45;8.75;;;7.80;;
7899;SDS011;3995;50.856;4.404;2022-12-18T04:43:12;8.20;;;6.95;;
7899;SDS011;3995;50.856;4.404;2022-12-18T04:45:39;8.43;;;7.53;;
7899;SDS011;3995;50.856;4.404;2022-12-18T04:48:07;7.28;;;6.57;;
7899;SDS011;3995;50.856;4.404;2022-12-18T04:50:35;9.13;;;7.38;;
7899;SDS011;3995;50.856;4.404;2022-12-18T04:53:02;8.65;;;6.90;;
7899;SDS011;3995;50.856;4.404;2022-12-18T04:55:30;8.15;;;7.15;;
7899;SDS011;3995;50.856;4.404;2022-12-18T04:57:57;8.13;;;6.95;;
7899;SDS011;3995;50.856;4.404;2022-12-18T05:00:24;7.50;;;6.70;;
7899;SDS011;3995;50.856;4.404;2022-12-18T05:02:51;8.20;;;7.35;;
7899;SDS011;3995;50.856;4.404;2022-12-18T05:05:19;7.43;;;6.68;;
7899;SDS011;3995;50.856;4.404;2022-12-18T05:07:48;7.43;;;6.65;;
7899;SDS011;3995;50.856;4.404;2022-12-18T05:10:15;7.68;;;6.85;;
7899;SDS011;3995;50.856;4.404;2022-12-18T05:12:43;7.95;;;7.15;;
7899;SDS011;3995;50.856;4.404;2022-12-18T05:15:27;7.60;;;6.90;;
7899;SDS011;3995;50.856;4.404;2022-12-18T05:17:55;8.20;;;7.40;;
7899;SDS011;3995;50.856;4.404;2022-12-18T05:20:22;8.00;;;6.78;;
7899;SDS011;3995;50.856;4.404;2022-12-18T05:22:51;6.47;;;5.88;;
7899;SDS011;3995;50.856;4.404;2022-12-18T05:25:19;8.23;;;7.03;;
7899;SDS011;3995;50.856;4.404;2022-12-18T05:27:47;7.90;;;7.07;;
7899;SDS011;3995;50.856;4.404;2022-12-18T05:30:15;6.80;;;6.10;;
7899;SDS011;3995;50.856;4.404;2022-12-18T05:32:43;7.13;;;6.40;;
7899;SDS011;3995;50.856;4.404;2022-12-18T05:35:10;7.05;;;6.40;;
7899;SDS011;3995;50.856;4.404;2022-12-18T05:37:37;10.38;;;6.00;;
7899;SDS011;3995;50.856;4.404;2022-12-18T05:40:07;7.80;;;5.95;;
7899;SDS011;3995;50.856;4.404;2022-12-18T05:42:35;8.10;;;6.50;;
7899;SDS011;3995;50.856;4.404;2022-12-18T05:45:03;6.13;;;5.53;;
7899;SDS011;3995;50.856;4.404;2022-12-18T05:47:31;7.93;;;6.88;;
7899;SDS011;3995;50.856;4.404;2022-12-18T05:49:58;6.85;;;6.15;;
7899;SDS011;3995;50.856;4.404;2022-12-18T05:52:25;6.85;;;5.47;;
7899;SDS011;3995;50.856;4.404;2022-12-18T05:54:53;7.13;;;6.43;;
7899;SDS011;3995;50.856;4.404;2022-12-18T05:57:22;6.55;;;5.82;;
7899;SDS011;3995;50.856;4.404;2022-12-18T05:59:49;6.90;;;6.22;;
7899;SDS011;3995;50.856;4.404;2022-12-18T06:02:16;7.63;;;5.88;;
7899;SDS011;3995;50.856;4.404;2022-12-18T06:04:46;8.40;;;5.22;;
7899;SDS011;3995;50.856;4.404;2022-12-18T06:07:14;6.60;;;6.00;;
7899;SDS011;3995;50.856;4.404;2022-12-18T06:09:41;6.93;;;6.22;;
7899;SDS011;3995;50.856;4.404;2022-12-18T06:12:08;7.13;;;6.43;;
7899;SDS011;3995;50.856;4.404;2022-12-18T06:14:37;7.18;;;5.80;;
7899;SDS011;3995;50.856;4.404;2022-12-18T06:17:05;7.50;;;6.43;;
7899;SDS011;3995;50.856;4.404;2022-12-18T06:19:32;12.07;;;6.30;;
7899;SDS011;3995;50.856;4.404;2022-12-18T06:21:59;5.95;;;5.45;;
7899;SDS011;3995;50.856;4.404;2022-12-18T06:24:26;6.70;;;6.10;;
7899;SDS011;3995;50.856;4.404;2022-12-18T06:26:54;6.55;;;5.57;;
7899;SDS011;3995;50.856;4.404;2022-12-18T06:29:21;6.55;;;5.88;;
7899;SDS011;3995;50.856;4.404;2022-12-18T06:31:50;8.55;;;6.53;;
7899;SDS011;3995;50.856;4.404;2022-12-18T06:34:17;6.78;;;6.07;;
7899;SDS011;3995;50.856;4.404;2022-12-18T06:36:45;6.78;;;6.15;;
7899;SDS011;3995;50.856;4.404;2022-12-18T06:39:12;8.43;;;6.20;;
7899;SDS011;3995;50.856;4.404;2022-12-18T06:41:39;7.53;;;6.10;;
7899;SDS011;3995;50.856;4.404;2022-12-18T06:44:07;7.70;;;6.20;;
7899;SDS011;3995;50.856;4.404;2022-12-18T06:46:34;7.03;;;6.15;;
7899;SDS011;3995;50.856;4.404;2022-12-18T06:49:04;6.40;;;5.70;;
7899;SDS011;3995;50.856;4.404;2022-12-18T06:51:31;6.80;;;6.15;;
7899;SDS011;3995;50.856;4.404;2022-12-18T06:53:59;8.00;;;5.82;;
7899;SDS011;3995;50.856;4.404;2022-12-18T06:56:26;7.57;;;5.75;;
7899;SDS011;3995;50.856;4.404;2022-12-18T06:58:53;6.88;;;6.03;;
7899;SDS011;3995;50.856;4.404;2022-12-18T07:01:21;8.18;;;6.10;;
7899;SDS011;3995;50.856;4.404;2022-12-18T07:03:51;7.93;;;5.78;;
7899;SDS011;3995;50.856;4.404;2022-12-18T07:06:21;6.32;;;5.75;;
7899;SDS011;3995;50.856;4.404;2022-12-18T07:08:49;6.43;;;5.65;;
7899;SDS011;3995;50.856;4.404;2022-12-18T07:11:17;5.80;;;5.30;;
7899;SDS011;3995;50.856;4.404;2022-12-18T07:13:48;5.63;;;5.00;;
7899;SDS011;3995;50.856;4.404;2022-12-18T07:16:16;6.47;;;5.53;;
7899;SDS011;3995;50.856;4.404;2022-12-18T07:18:44;6.28;;;5.68;;
7899;SDS011;3995;50.856;4.404;2022-12-18T07:21:12;6.47;;;5.55;;
7899;SDS011;3995;50.856;4.404;2022-12-18T07:23:43;6.10;;;5.22;;
7899;SDS011;3995;50.856;4.404;2022-12-18T07:26:14;5.35;;;4.80;;
7899;SDS011;3995;50.856;4.404;2022-12-18T07:28:43;5.80;;;5.20;;
7899;SDS011;3995;50.856;4.404;2022-12-18T07:31:10;6.22;;;5.22;;
7899;SDS011;3995;50.856;4.404;2022-12-18T07:33:39;6.13;;;4.82;;
7899;SDS011;3995;50.856;4.404;2022-12-18T07:36:07;6.05;;;5.45;;
7899;SDS011;3995;50.856;4.404;2022-12-18T07:38:35;6.57;;;5.88;;
7899;SDS011;3995;50.856;4.404;2022-12-18T07:41:05;5.22;;;4.72;;
7899;SDS011;3995;50.856;4.404;2022-12-18T07:43:33;6.47;;;5.75;;
7899;SDS011;3995;50.856;4.404;2022-12-18T07:46:01;5.55;;;5.00;;
7899;SDS011;3995;50.856;4.404;2022-12-18T07:48:29;5.60;;;5.10;;
7899;SDS011;3995;50.856;4.404;2022-12-18T07:50:57;5.20;;;4.70;;
7899;SDS011;3995;50.856;4.404;2022-12-18T07:53:25;5.10;;;4.60;;
7899;SDS011;3995;50.856;4.404;2022-12-18T07:55:54;5.20;;;4.55;;
7899;SDS011;3995;50.856;4.404;2022-12-18T07:58:23;4.75;;;4.05;;
7899;SDS011;3995;50.856;4.404;2022-12-18T08:00:50;4.70;;;4.30;;
7899;SDS011;3995;50.856;4.404;2022-12-18T08:03:18;4.53;;;4.13;;
7899;SDS011;3995;50.856;4.404;2022-12-18T08:05:46;4.57;;;4.10;;
7899;SDS011;3995;50.856;4.404;2022-12-18T08:08:16;5.05;;;4.60;;
7899;SDS011;3995;50.856;4.404;2022-12-18T08:10:43;5.20;;;4.57;;
7899;SDS011;3995;50.856;4.404;2022-12-18T08:13:11;5.38;;;4.88;;
7899;SDS011;3995;50.856;4.404;2022-12-18T08:15:39;4.97;;;4.50;;
7899;SDS011;3995;50.856;4.404;2022-12-18T08:18:07;6.15;;;4.07;;
7899;SDS011;3995;50.856;4.404;2022-12-18T08:20:34;5.13;;;4.65;;
7899;SDS011;3995;50.856;4.404;2022-12-18T08:23:02;5.82;;;4.53;;
7899;SDS011;3995;50.856;4.404;2022-12-18T08:25:29;4.60;;;4.18;;
7899;SDS011;3995;50.856;4.404;2022-12-18T08:27:57;4.45;;;3.97;;
7899;SDS011;3995;50.856;4.404;2022-12-18T08:30:24;4.90;;;4.40;;
7899;SDS011;3995;50.856;4.404;2022-12-18T08:32:53;4.65;;;4.25;;
7899;SDS011;3995;50.856;4.404;2022-12-18T08:35:20;5.07;;;4.57;;
7899;SDS011;3995;50.856;4.404;2022-12-18T08:37:48;4.60;;;4.05;;
7899;SDS011;3995;50.856;4.404;2022-12-18T08:40:15;4.90;;;4.50;;
7899;SDS011;3995;50.856;4.404;2022-12-18T08:42:42;4.95;;;4.45;;
7899;SDS011;3995;50.856;4.404;2022-12-18T08:45:27;4.75;;;4.35;;
7899;SDS011;3995;50.856;4.404;2022-12-18T08:47:55;4.70;;;4.30;;
7899;SDS011;3995;50.856;4.404;2022-12-18T08:50:23;5.00;;;4.50;;
7899;SDS011;3995;50.856;4.404;2022-12-18T08:52:50;4.65;;;4.22;;
7899;SDS011;3995;50.856;4.404;2022-12-18T08:55:18;4.90;;;4.43;;
7899;SDS011;3995;50.856;4.404;2022-12-18T08:57:47;5.03;;;4.53;;
7899;SDS011;3995;50.856;4.404;2022-12-18T09:00:15;5.90;;;5.30;;
7899;SDS011;3995;50.856;4.404;2022-12-18T09:02:43;6.32;;;5.40;;
7899;SDS011;3995;50.856;4.404;2022-12-18T09:05:12;5.53;;;5.03;;
7899;SDS011;3995;50.856;4.404;2022-12-18T09:07:39;5.55;;;5.05;;
7899;SDS011;3995;50.856;4.404;2022-12-18T09:10:07;5.55;;;5.05;;
7899;SDS011;3995;50.856;4.404;2022-12-18T09:12:34;6.40;;;5.53;;
7899;SDS011;3995;50.856;4.404;2022-12-18T09:15:02;5.05;;;4.65;;
7899;SDS011;3995;50.856;4.404;2022-12-18T09:17:30;6.07;;;5.53;;
7899;SDS011;3995;50.856;4.404;2022-12-18T09:19:57;5.53;;;5.03;;
7899;SDS011;3995;50.856;4.404;2022-12-18T09:22:26;4.93;;;4.50;;
7899;SDS011;3995;50.856;4.404;2022-12-18T09:24:53;5.30;;;4.80;;
7899;SDS011;3995;50.856;4.404;2022-12-18T09:27:21;6.38;;;5.78;;
7899;SDS011;3995;50.856;4.404;2022-12-18T09:29:48;5.65;;;5.15;;
7899;SDS011;3995;50.856;4.404;2022-12-18T09:32:15;5.70;;;4.85;;
7899;SDS011;3995;50.856;4.404;2022-12-18T09:34:43;7.25;;;6.35;;
7899;SDS011;3995;50.856;4.404;2022-12-18T09:37:10;8.13;;;5.18;;
7899;SDS011;3995;50.856;4.404;2022-12-18T09:39:39;5.78;;;5.28;;
7899;SDS011;3995;50.856;4.404;2022-12-18T09:42:08;6.40;;;5.80;;
7899;SDS011;3995;50.856;4.404;2022-12-18T09:44:41;6.10;;;5.50;;
7899;SDS011;3995;50.856;4.404;2022-12-18T09:47:12;6.32;;;5.72;;
7899;SDS011;3995;50.856;4.404;2022-12-18T09:49:44;6.78;;;5.70;;
7899;SDS011;3995;50.856;4.404;2022-12-18T09:52:15;6.30;;;5.70;;
7899;SDS011;3995;50.856;4.404;2022-12-18T09:54:48;6.30;;;5.70;;
7899;SDS011;3995;50.856;4.404;2022-12-18T09:57:20;6.20;;;5.65;;
7899;SDS011;3995;50.856;4.404;2022-12-18T09:59:50;6.70;;;6.00;;
7899;SDS011;3995;50.856;4.404;2022-12-18T10:02:21;6.40;;;5.75;;
7899;SDS011;3995;50.856;4.404;2022-12-18T10:04:54;7.20;;;6.38;;
7899;SDS011;3995;50.856;4.404;2022-12-18T10:07:30;6.70;;;6.10;;
7899;SDS011;3995;50.856;4.404;2022-12-18T10:10:16;7.30;;;6.60;;
7899;SDS011;3995;50.856;4.404;2022-12-18T10:12:53;7.50;;;6.75;;
7899;SDS011;3995;50.856;4.404;2022-12-18T10:15:27;7.03;;;6.30;;
7899;SDS011;3995;50.856;4.404;2022-12-18T10:18:00;9.00;;;6.57;;
7899;SDS011;3995;50.856;4.404;2022-12-18T10:20:34;7.35;;;6.50;;
7899;SDS011;3995;50.856;4.404;2022-12-18T10:23:09;8.40;;;7.00;;
7899;SDS011;3995;50.856;4.404;2022-12-18T10:25:50;7.55;;;6.72;;
7899;SDS011;3995;50.856;4.404;2022-12-18T10:28:22;7.70;;;6.68;;
7899;SDS011;3995;50.856;4.404;2022-12-18T10:30:51;7.63;;;6.80;;
7899;SDS011;3995;50.856;4.404;2022-12-18T10:33:19;8.00;;;7.20;;
7899;SDS011;3995;50.856;4.404;2022-12-18T10:35:52;7.38;;;6.68;;
7899;SDS011;3995;50.856;4.404;2022-12-18T10:38:21;8.05;;;6.82;;
7899;SDS011;3995;50.856;4.404;2022-12-18T10:40:55;7.57;;;6.88;;
7899;SDS011;3995;50.856;4.404;2022-12-18T10:43:25;7.30;;;6.63;;
7899;SDS011;3995;50.856;4.404;2022-12-18T10:46:02;14.00;;;7.18;;
7899;SDS011;3995;50.856;4.404;2022-12-18T10:48:32;7.28;;;6.57;;
7899;SDS011;3995;50.856;4.404;2022-12-18T10:51:02;7.32;;;6.63;;
7899;SDS011;3995;50.856;4.404;2022-12-18T10:53:30;7.57;;;6.88;;
7899;SDS011;3995;50.856;4.404;2022-12-18T10:56:00;7.68;;;6.93;;
7899;SDS011;3995;50.856;4.404;2022-12-18T10:58:31;7.90;;;7.10;;
7899;SDS011;3995;50.856;4.404;2022-12-18T11:01:04;8.02;;;7.22;;
7899;SDS011;3995;50.856;4.404;2022-12-18T11:03:35;9.15;;;7.35;;
7899;SDS011;3995;50.856;4.404;2022-12-18T11:06:04;8.50;;;7.70;;
7899;SDS011;3995;50.856;4.404;2022-12-18T11:08:34;9.25;;;8.30;;
7899;SDS011;3995;50.856;4.404;2022-12-18T11:11:03;9.48;;;8.48;;
7899;SDS011;3995;50.856;4.404;2022-12-18T11:13:33;21.20;;;18.35;;
7899;SDS011;3995;50.856;4.404;2022-12-18T11:16:01;20.33;;;17.77;;
7899;SDS011;3995;50.856;4.404;2022-12-18T11:18:29;12.07;;;10.85;;
7899;SDS011;3995;50.856;4.404;2022-12-18T11:20:59;10.90;;;9.35;;
7899;SDS011;3995;50.856;4.404;2022-12-18T11:23:33;9.45;;;8.55;;
7899;SDS011;3995;50.856;4.404;2022-12-18T11:26:04;31.23;;;26.10;;
7899;SDS011;3995;50.856;4.404;2022-12-18T11:28:35;26.80;;;22.30;;
7899;SDS011;3995;50.856;4.404;2022-12-18T11:31:21;14.73;;;12.75;;
7899;SDS011;3995;50.856;4.404;2022-12-18T11:33:52;17.52;;;15.00;;
7899;SDS011;3995;50.856;4.404;2022-12-18T11:36:30;15.63;;;13.75;;
7899;SDS011;3995;50.856;4.404;2022-12-18T11:39:02;12.57;;;10.75;;
7899;SDS011;3995;50.856;4.404;2022-12-18T11:41:38;10.93;;;9.82;;
7899;SDS011;3995;50.856;4.404;2022-12-18T11:44:27;10.95;;;9.85;;
7899;SDS011;3995;50.856;4.404;2022-12-18T11:47:03;10.35;;;9.23;;
7899;SDS011;3995;50.856;4.404;2022-12-18T11:49:40;10.18;;;8.13;;
7899;SDS011;3995;50.856;4.404;2022-12-18T11:52:09;9.82;;;8.82;;
7899;SDS011;3995;50.856;4.404;2022-12-18T11:54:43;9.98;;;8.98;;
7899;SDS011;3995;50.856;4.404;2022-12-18T11:57:14;10.52;;;8.90;;
7899;SDS011;3995;50.856;4.404;2022-12-18T11:59:48;13.30;;;11.90;;
7899;SDS011;3995;50.856;4.404;2022-12-18T12:02:34;21.52;;;18.65;;
7899;SDS011;3995;50.856;4.404;2022-12-18T12:05:25;12.25;;;10.27;;
7899;SDS011;3995;50.856;4.404;2022-12-18T12:08:03;13.55;;;11.05;;
7899;SDS011;3995;50.856;4.404;2022-12-18T12:10:40;11.70;;;10.50;;
7899;SDS011;3995;50.856;4.404;2022-12-18T12:13:26;10.52;;;9.40;;
7899;SDS011;3995;50.856;4.404;2022-12-18T12:16:04;14.73;;;12.07;;
7899;SDS011;3995;50.856;4.404;2022-12-18T12:18:42;14.55;;;11.95;;
7899;SDS011;3995;50.856;4.404;2022-12-18T12:21:20;15.20;;;13.00;;
7899;SDS011;3995;50.856;4.404;2022-12-18T12:23:53;12.85;;;10.80;;
7899;SDS011;3995;50.856;4.404;2022-12-18T12:26:29;14.57;;;11.27;;
7899;SDS011;3995;50.856;4.404;2022-12-18T12:29:08;13.30;;;10.48;;
7899;SDS011;3995;50.856;4.404;2022-12-18T12:32:02;10.77;;;9.23;;
7899;SDS011;3995;50.856;4.404;2022-12-18T12:34:40;13.27;;;11.52;;
7899;SDS011;3995;50.856;4.404;2022-12-18T12:37:18;12.68;;;11.07;;
7899;SDS011;3995;50.856;4.404;2022-12-18T12:39:51;10.68;;;9.15;;
7899;SDS011;3995;50.856;4.404;2022-12-18T12:42:23;11.77;;;9.82;;
7899;SDS011;3995;50.856;4.404;2022-12-18T12:45:16;13.73;;;10.35;;
7899;SDS011;3995;50.856;4.404;2022-12-18T12:47:49;14.60;;;10.07;;
7899;SDS011;3995;50.856;4.404;2022-12-18T12:50:19;11.02;;;9.55;;
7899;SDS011;3995;50.856;4.404;2022-12-18T12:52:49;10.85;;;9.75;;
7899;SDS011;3995;50.856;4.404;2022-12-18T12:55:19;12.20;;;10.90;;
7899;SDS011;3995;50.856;4.404;2022-12-18T12:57:51;11.70;;;9.63;;
7899;SDS011;3995;50.856;4.404;2022-12-18T13:00:31;9.98;;;9.00;;
7899;SDS011;3995;50.856;4.404;2022-12-18T13:03:07;10.63;;;9.52;;
7899;SDS011;3995;50.856;4.404;2022-12-18T13:05:40;36.63;;;11.13;;
7899;SDS011;3995;50.856;4.404;2022-12-18T13:08:22;12.88;;;9.38;;
7899;SDS011;3995;50.856;4.404;2022-12-18T13:10:51;11.80;;;9.73;;
7899;SDS011;3995;50.856;4.404;2022-12-18T13:13:47;12.25;;;9.73;;
7899;SDS011;3995;50.856;4.404;2022-12-18T13:16:16;10.40;;;9.30;;
7899;SDS011;3995;50.856;4.404;2022-12-18T13:18:49;14.70;;;10.10;;
7899;SDS011;3995;50.856;4.404;2022-12-18T13:21:20;11.02;;;9.52;;
7899;SDS011;3995;50.856;4.404;2022-12-18T13:23:52;10.70;;;9.63;;
7899;SDS011;3995;50.856;4.404;2022-12-18T13:26:33;10.60;;;9.18;;
7899;SDS011;3995;50.856;4.404;2022-12-18T13:29:01;17.02;;;10.32;;
7899;SDS011;3995;50.856;4.404;2022-12-18T13:34:44;14.13;;;9.43;;
7899;SDS011;3995;50.856;4.404;2022-12-18T13:43:23;12.43;;;9.90;;
7899;SDS011;3995;50.856;4.404;2022-12-18T13:46:16;14.70;;;11.02;;
7899;SDS011;3995;50.856;4.404;2022-12-18T13:48:52;11.40;;;10.25;;
7899;SDS011;3995;50.856;4.404;2022-12-18T13:51:23;12.98;;;11.02;;
7899;SDS011;3995;50.856;4.404;2022-12-18T13:53:52;11.48;;;10.27;;
7899;SDS011;3995;50.856;4.404;2022-12-18T13:56:24;18.48;;;15.65;;
7899;SDS011;3995;50.856;4.404;2022-12-18T13:59:03;13.65;;;12.18;;
7899;SDS011;3995;50.856;4.404;2022-12-18T14:01:41;13.43;;;11.40;;
7899;SDS011;3995;50.856;4.404;2022-12-18T14:04:11;16.30;;;11.90;;
7899;SDS011;3995;50.856;4.404;2022-12-18T14:06:45;13.23;;;11.63;;
7899;SDS011;3995;50.856;4.404;2022-12-18T14:09:13;18.80;;;14.32;;
7899;SDS011;3995;50.856;4.404;2022-12-18T14:11:46;14.23;;;12.73;;
7899;SDS011;3995;50.856;4.404;2022-12-18T14:14:14;15.63;;;14.02;;
7899;SDS011;3995;50.856;4.404;2022-12-18T14:16:43;13.50;;;11.88;;
7899;SDS011;3995;50.856;4.404;2022-12-18T14:19:15;17.02;;;12.80;;
7899;SDS011;3995;50.856;4.404;2022-12-18T14:21:47;14.20;;;12.35;;
7899;SDS011;3995;50.856;4.404;2022-12-18T14:24:16;13.73;;;12.25;;
7899;SDS011;3995;50.856;4.404;2022-12-18T14:26:45;15.35;;;13.48;;
7899;SDS011;3995;50.856;4.404;2022-12-18T14:29:21;18.88;;;13.43;;
7899;SDS011;3995;50.856;4.404;2022-12-18T14:32:07;14.95;;;13.05;;
7899;SDS011;3995;50.856;4.404;2022-12-18T14:34:38;14.75;;;12.80;;
7899;SDS011;3995;50.856;4.404;2022-12-18T14:37:05;15.23;;;12.20;;
7899;SDS011;3995;50.856;4.404;2022-12-18T14:39:35;14.18;;;12.68;;
7899;SDS011;3995;50.856;4.404;2022-12-18T14:42:03;14.85;;;13.35;;
7899;SDS011;3995;50.856;4.404;2022-12-18T14:44:30;19.65;;;13.32;;
7899;SDS011;3995;50.856;4.404;2022-12-18T14:46:57;17.10;;;13.43;;
7899;SDS011;3995;50.856;4.404;2022-12-18T14:49:25;15.20;;;12.63;;
7899;SDS011;3995;50.856;4.404;2022-12-18T14:51:57;18.90;;;13.93;;
7899;SDS011;3995;50.856;4.404;2022-12-18T14:54:26;14.98;;;13.30;;
7899;SDS011;3995;50.856;4.404;2022-12-18T14:56:55;17.65;;;13.00;;
7899;SDS011;3995;50.856;4.404;2022-12-18T14:59:26;17.00;;;14.10;;
7899;SDS011;3995;50.856;4.404;2022-12-18T15:01:57;18.88;;;13.65;;
7899;SDS011;3995;50.856;4.404;2022-12-18T15:04:29;15.25;;;13.65;;
7899;SDS011;3995;50.856;4.404;2022-12-18T15:10:00;15.65;;;14.00;;
7899;SDS011;3995;50.856;4.404;2022-12-18T15:12:32;17.50;;;13.85;;
7899;SDS011;3995;50.856;4.404;2022-12-18T15:15:01;14.70;;;13.15;;
7899;SDS011;3995;50.856;4.404;2022-12-18T15:17:29;15.73;;;14.13;;
7899;SDS011;3995;50.856;4.404;2022-12-18T15:19:58;14.27;;;12.77;;
7899;SDS011;3995;50.856;4.404;2022-12-18T15:22:30;17.42;;;12.82;;
7899;SDS011;3995;50.856;4.404;2022-12-18T15:25:02;16.75;;;13.15;;
7899;SDS011;3995;50.856;4.404;2022-12-18T15:27:47;15.02;;;13.43;;
7899;SDS011;3995;50.856;4.404;2022-12-18T15:30:18;16.90;;;14.02;;
7899;SDS011;3995;50.856;4.404;2022-12-18T15:32:47;16.20;;;12.88;;
7899;SDS011;3995;50.856;4.404;2022-12-18T15:35:16;15.70;;;13.68;;
7899;SDS011;3995;50.856;4.404;2022-12-18T15:37:46;14.90;;;13.30;;
7899;SDS011;3995;50.856;4.404;2022-12-18T15:40:14;19.13;;;14.18;;